Time;durP1;ratioP1;P1;durP2;ratioP2;P2;SDS_P1;SDS_P2;PMS_P1;PMS_P2;Temp;Humidity;BMP_temperature;BMP_pressure;BME280_temperature;BME280_humidity;BME280_pressure;Samples;Min_cycle;Max_cycle;Signal;HPM_P1;HPM_P2
2023/01/30 00:01:28;;;;;;;2.80;1.00;;;;;;;-1.41;100.00;100553.40;104601;1266;59781;-51
2023/01/30 00:03:56;;;;;;;1.60;0.80;;;;;;;-1.41;100.00;100554.64;104670;1263;71799;-52
2023/01/30 00:06:24;;;;;;;2.30;0.90;;;;;;;-1.41;100.00;100549.88;104903;1267;67835;-52
2023/01/30 00:08:52;;;;;;;2.00;1.00;;;;;;;-1.42;100.00;100545.27;104821;1270;71395;-50
2023/01/30 00:11:20;;;;;;;1.70;0.90;;;;;;;-1.43;100.00;100541.73;105106;1268;59768;-53
2023/01/30 00:13:48;;;;;;;2.10;0.90;;;;;;;-1.43;100.00;100537.87;104566;1262;59609;-50
2023/01/30 00:16:17;;;;;;;3.10;1.10;;;;;;;-1.44;100.00;100539.45;105406;1254;73249;-51
2023/01/30 00:18:45;;;;;;;1.50;0.90;;;;;;;-1.44;100.00;100538.57;105713;1256;66939;-51
2023/01/30 00:21:14;;;;;;;3.60;0.80;;;;;;;-1.45;100.00;100541.73;105323;1258;72700;-51
2023/01/30 00:23:43;;;;;;;2.30;0.80;;;;;;;-1.47;100.00;100541.89;105380;1257;59581;-52
2023/01/30 00:26:11;;;;;;;1.30;0.80;;;;;;;-1.48;100.00;100532.55;105339;1253;59848;-51
2023/01/30 00:28:40;;;;;;;1.50;0.80;;;;;;;-1.49;100.00;100526.00;105970;1256;72392;-51
2023/01/30 00:31:10;;;;;;;1.00;0.70;;;;;;;-1.50;100.00;100522.64;105309;1257;66044;-52
2023/01/30 00:33:38;;;;;;;2.30;0.80;;;;;;;-1.52;100.00;100521.92;105246;1257;71624;-52
2023/01/30 00:36:08;;;;;;;1.50;0.80;;;;;;;-1.52;100.00;100520.52;105542;1255;60254;-51
2023/01/30 00:38:37;;;;;;;1.20;0.70;;;;;;;-1.53;100.00;100521.91;105369;1253;59815;-51
2023/01/30 00:41:07;;;;;;;1.20;0.70;;;;;;;-1.54;100.00;100513.64;105424;1254;71881;-51
2023/01/30 00:49:22;;;;;;;0.90;0.60;;;;;;;-1.55;100.00;100515.38;105554;1258;60088;-52
2023/01/30 00:51:50;;;;;;;1.10;0.60;;;;;;;-1.55;100.00;100507.98;105541;1258;59984;-52
2023/01/30 00:54:18;;;;;;;1.30;0.80;;;;;;;-1.56;100.00;100503.06;105126;1254;72335;-52
2023/01/30 00:56:46;;;;;;;2.10;0.70;;;;;;;-1.56;100.00;100494.61;105435;1257;67165;-52
2023/01/30 00:59:14;;;;;;;3.30;0.80;;;;;;;-1.56;100.00;100494.42;105275;1254;71303;-52
2023/01/30 01:01:43;;;;;;;1.80;0.80;;;;;;;-1.57;100.00;100490.19;105522;1257;61873;-52
2023/01/30 01:04:12;;;;;;;1.40;0.70;;;;;;;-1.58;100.00;100479.09;105905;1257;59743;-51
2023/01/30 01:06:43;;;;;;;1.40;0.70;;;;;;;-1.58;100.00;100479.08;105515;1253;71916;-52
2023/01/30 01:09:11;;;;;;;2.00;0.80;;;;;;;-1.58;100.00;100473.98;105515;1257;66551;-52
2023/01/30 01:11:40;;;;;;;1.30;0.70;;;;;;;-1.57;100.00;100474.52;105301;1254;71936;-52
2023/01/30 01:14:08;;;;;;;2.20;0.90;;;;;;;-1.55;100.00;100470.33;105236;1259;59778;-52
2023/01/30 01:16:36;;;;;;;1.50;0.80;;;;;;;-1.52;100.00;100467.17;105547;1254;60519;-53
2023/01/30 01:19:04;;;;;;;1.10;0.70;;;;;;;-1.48;100.00;100462.48;105128;1254;72223;-52
2023/01/30 01:21:34;;;;;;;2.30;0.80;;;;;;;-1.46;100.00;100457.05;105027;1254;66624;-52
2023/01/30 01:24:05;;;;;;;1.30;0.80;;;;;;;-1.43;100.00;100455.14;104947;1254;72358;-52
2023/01/30 01:26:34;;;;;;;2.70;0.80;;;;;;;-1.39;100.00;100450.61;105866;1254;60642;-52
2023/01/30 01:29:03;;;;;;;2.10;0.80;;;;;;;-1.37;100.00;100453.27;105475;1254;59886;-52
2023/01/30 01:31:31;;;;;;;2.80;1.20;;;;;;;-1.37;100.00;100451.70;105195;1257;72345;-51
2023/01/30 01:34:00;;;;;;;1.00;0.60;;;;;;;-1.37;100.00;100447.46;105491;1254;66386;-51
2023/01/30 01:36:27;;;;;;;1.10;0.70;;;;;;;-1.38;100.00;100444.64;105368;1260;72672;-51
2023/01/30 01:39:16;;;;;;;1.70;0.70;;;;;;;-1.40;100.00;100447.77;105288;1254;59739;-52
2023/01/30 01:41:44;;;;;;;1.20;0.80;;;;;;;-1.44;100.00;100437.70;106043;1254;59656;-51
2023/01/30 01:44:13;;;;;;;2.30;0.80;;;;;;;-1.47;100.00;100443.48;105212;1254;72687;-51
2023/01/30 01:46:55;;;;;;;1.40;0.70;;;;;;;-1.52;100.00;100437.44;105398;1257;67473;-51
2023/01/30 01:49:25;;;;;;;1.20;0.70;;;;;;;-1.55;100.00;100440.58;105228;1254;72567;-51
2023/01/30 01:51:54;;;;;;;1.70;0.70;;;;;;;-1.57;100.00;100430.52;105551;1254;60964;-51
2023/01/30 01:54:31;;;;;;;1.20;0.60;;;;;;;-1.59;100.00;100427.85;105426;1256;59649;-51
2023/01/30 01:57:01;;;;;;;1.10;0.70;;;;;;;-1.61;100.00;100428.35;105655;1254;71652;-51
2023/01/30 01:59:38;;;;;;;1.00;0.70;;;;;;;-1.63;100.00;100423.08;105356;1257;65599;-51
2023/01/30 02:02:08;;;;;;;1.30;0.70;;;;;;;-1.65;100.00;100430.27;105474;1254;73858;-51
2023/01/30 02:07:25;;;;;;;1.10;0.60;;;;;;;-1.66;100.00;100434.12;105171;1254;61459;-48
2023/01/30 02:09:53;;;;;;;1.20;0.80;;;;;;;-1.66;100.00;100421.09;105717;1254;73680;-50
2023/01/30 02:12:22;;;;;;;1.30;0.70;;;;;;;-1.66;100.00;100410.89;105140;1259;67642;-48
2023/01/30 02:14:50;;;;;;;0.80;0.60;;;;;;;-1.67;100.00;100401.71;105309;1254;72968;-48
2023/01/30 02:17:23;;;;;;;2.40;0.70;;;;;;;-1.67;100.00;100410.52;105184;1254;61384;-48
2023/01/30 02:20:03;;;;;;;0.90;0.50;;;;;;;-1.67;100.00;100407.01;106222;1254;59361;-48
2023/01/30 02:22:59;;;;;;;1.20;0.50;;;;;;;-1.66;100.00;100407.89;105255;1253;73470;-51
2023/01/30 02:25:58;;;;;;;1.70;0.60;;;;;;;-1.65;100.00;100409.14;105435;1257;67892;-48
2023/01/30 02:28:45;;;;;;;1.10;0.60;;;;;;;-1.65;100.00;100409.33;105247;1254;71674;-47
2023/01/30 02:31:31;;;;;;;1.60;0.70;;;;;;;-1.63;100.00;100400.90;105384;1257;60354;-48
2023/01/30 02:34:17;;;;;;;1.30;0.60;;;;;;;-1.62;100.00;100397.39;105195;1254;61494;-49
2023/01/30 02:36:53;;;;;;;1.40;0.60;;;;;;;-1.59;100.00;100391.23;105190;1254;74298;-50
2023/01/30 02:40:22;;;;;;;2.70;0.60;;;;;;;-1.57;100.00;100383.17;105583;1253;67833;-50
2023/01/30 02:43:15;;;;;;;1.20;0.70;;;;;;;-1.55;100.00;100399.05;105099;1260;72349;-50
2023/01/30 02:46:02;;;;;;;2.20;0.70;;;;;;;-1.55;100.00;100385.85;105024;1263;60464;-49
2023/01/30 02:49:10;;;;;;;0.90;0.60;;;;;;;-1.55;100.00;100379.17;104927;1254;60488;-49
2023/01/30 02:51:39;;;;;;;0.90;0.70;;;;;;;-1.55;100.00;100379.34;104935;1255;74405;-49
2023/01/30 02:54:10;;;;;;;1.60;0.70;;;;;;;-1.55;100.00;100362.08;105367;1256;67050;-48
2023/01/30 02:56:51;;;;;;;1.10;0.60;;;;;;;-1.56;100.00;100355.91;105519;1257;72150;-48
2023/01/30 02:59:35;;;;;;;1.20;0.60;;;;;;;-1.57;100.00;100360.83;105500;1254;60560;-48
2023/01/30 03:03:06;;;;;;;1.50;0.70;;;;;;;-1.58;100.00;100357.29;105716;1254;60625;-47
2023/01/30 03:06:03;;;;;;;1.80;0.60;;;;;;;-1.58;100.00;100376.29;104860;1261;74158;-51
2023/01/30 03:08:38;;;;;;;2.80;0.90;;;;;;;-1.59;100.00;100360.80;105002;1264;66016;-52
2023/01/30 03:11:07;;;;;;;1.10;0.50;;;;;;;-1.60;100.00;100345.65;105950;1254;72904;-48
2023/01/30 03:13:42;;;;;;;2.60;0.60;;;;;;;-1.61;100.00;100333.67;105204;1259;60653;-48
2023/01/30 03:16:11;;;;;;;6.10;0.70;;;;;;;-1.60;100.00;100336.14;105204;1254;60663;-50
2023/01/30 03:18:41;;;;;;;0.80;0.50;;;;;;;-1.59;100.00;100335.10;105119;1254;73049;-50
2023/01/30 03:21:10;;;;;;;3.80;0.60;;;;;;;-1.57;100.00;100329.32;105244;1254;68244;-51
2023/01/30 03:23:38;;;;;;;0.90;0.60;;;;;;;-1.55;100.00;100326.88;105321;1257;71912;-49
2023/01/30 03:26:09;;;;;;;1.40;0.80;;;;;;;-1.51;100.00;100325.67;105140;1253;60702;-48
2023/01/30 03:28:37;;;;;;;1.00;0.70;;;;;;;-1.48;100.00;100325.52;105249;1254;60518;-49
2023/01/30 03:31:05;;;;;;;3.40;0.70;;;;;;;-1.45;100.00;100319.74;105218;1257;73861;-49
2023/01/30 03:33:34;;;;;;;1.90;0.70;;;;;;;-1.43;100.00;100319.05;105386;1257;66432;-49
2023/01/30 03:36:02;;;;;;;1.20;0.80;;;;;;;-1.42;100.00;100318.36;105258;1253;71605;-50
2023/01/30 03:38:33;;;;;;;1.60;0.80;;;;;;;-1.41;100.00;100321.72;105781;1257;60334;-50
2023/01/30 03:41:02;;;;;;;1.40;0.80;;;;;;;-1.42;100.00;100318.54;105124;1254;60473;-48
2023/01/30 03:43:30;;;;;;;1.70;0.80;;;;;;;-1.42;100.00;100315.20;105428;1254;73205;-50
2023/01/30 03:45:58;;;;;;;2.50;0.90;;;;;;;-1.42;100.00;100312.20;105497;1253;67357;-49
2023/01/30 03:48:27;;;;;;;2.60;0.90;;;;;;;-1.43;100.00;100315.01;105142;1257;73655;-51
2023/01/30 03:50:55;;;;;;;4.70;1.00;;;;;;;-1.44;100.00;100311.83;105199;1253;60636;-49
2023/01/30 03:53:23;;;;;;;2.70;1.00;;;;;;;-1.44;100.00;100309.54;105163;1253;62571;-51
2023/01/30 03:55:51;;;;;;;1.70;1.00;;;;;;;-1.44;100.00;100305.84;105422;1253;72615;-50
2023/01/30 03:58:24;;;;;;;1.50;0.90;;;;;;;-1.46;100.00;100303.91;105410;1257;66129;-51
2023/01/30 04:00:55;;;;;;;2.20;1.30;;;;;;;-1.47;100.00;100302.30;105547;1257;71513;-50
2023/01/30 04:03:23;;;;;;;2.00;1.50;;;;;;;-1.49;100.00;100294.90;105447;1258;61038;-48
2023/01/30 04:05:53;;;;;;;4.50;1.30;;;;;;;-1.50;100.00;100288.02;105112;1253;60587;-50
2023/01/30 04:08:22;;;;;;;2.30;1.20;;;;;;;-1.51;100.00;100282.20;105186;1257;73005;-50
2023/01/30 04:10:51;;;;;;;2.60;1.30;;;;;;;-1.50;100.00;100282.91;105477;1253;67619;-50
2023/01/30 04:13:19;;;;;;;4.60;1.30;;;;;;;-1.50;100.00;100282.03;105594;1254;71776;-50
2023/01/30 04:15:47;;;;;;;2.20;1.00;;;;;;;-1.48;100.00;100277.66;105200;1254;61136;-50
2023/01/30 04:18:35;;;;;;;2.90;1.30;;;;;;;-1.46;100.00;100285.25;105148;1253;61618;-49
2023/01/30 04:21:12;;;;;;;3.30;1.40;;;;;;;-1.43;100.00;100284.73;105760;1253;74051;-52
2023/01/30 04:23:40;;;;;;;3.20;1.70;;;;;;;-1.39;100.00;100283.19;105090;1254;65266;-52
2023/01/30 04:26:09;;;;;;;2.90;1.30;;;;;;;-1.36;100.00;100285.14;105158;1254;71714;-48
2023/01/30 04:28:38;;;;;;;3.70;2.10;;;;;;;-1.35;100.00;100287.26;105976;1257;60574;-50
2023/01/30 04:31:06;;;;;;;2.10;1.60;;;;;;;-1.37;100.00;100283.20;105416;1257;60469;-50
2023/01/30 04:33:35;;;;;;;4.10;2.30;;;;;;;-1.39;100.00;100286.55;105812;1254;72865;-49
2023/01/30 04:36:05;;;;;;;3.80;1.70;;;;;;;-1.39;100.00;100283.89;105508;1253;66314;-49
2023/01/30 04:38:33;;;;;;;4.00;2.10;;;;;;;-1.40;100.00;100281.42;105530;1254;70718;-50
2023/01/30 04:41:03;;;;;;;2.70;1.70;;;;;;;-1.42;100.00;100274.34;105696;1257;60678;-49
2023/01/30 04:43:33;;;;;;;3.00;1.70;;;;;;;-1.44;100.00;100273.27;105497;1253;60793;-51
2023/01/30 04:46:16;;;;;;;3.90;1.80;;;;;;;-1.45;100.00;100281.39;105880;1253;73555;-48
2023/01/30 04:48:44;;;;;;;2.70;1.80;;;;;;;-1.47;100.00;100269.58;105622;1256;67396;-50
2023/01/30 04:51:12;;;;;;;5.90;1.90;;;;;;;-1.49;100.00;100264.45;105177;1257;71394;-51
2023/01/30 04:53:40;;;;;;;3.30;2.30;;;;;;;-1.49;100.00;100265.15;105327;1254;61167;-49
2023/01/30 04:56:09;;;;;;;2.80;2.30;;;;;;;-1.49;100.00;100265.85;105297;1259;60562;-49
2023/01/30 04:58:37;;;;;;;4.20;2.30;;;;;;;-1.48;100.00;100266.03;105513;1254;72799;-50
2023/01/30 05:01:23;;;;;;;3.60;1.90;;;;;;;-1.46;100.00;100261.84;105330;1254;67646;-50
2023/01/30 05:03:51;;;;;;;3.10;2.30;;;;;;;-1.44;100.00;100258.48;105209;1254;72912;-50
2023/01/30 05:06:20;;;;;;;4.10;2.90;;;;;;;-1.42;100.00;100251.98;105208;1257;60697;-49
2023/01/30 05:08:49;;;;;;;2.70;2.00;;;;;;;-1.40;100.00;100246.03;105167;1256;60482;-51
2023/01/30 05:11:17;;;;;;;4.00;2.00;;;;;;;-1.39;100.00;100240.77;105729;1254;72769;-50
2023/01/30 05:13:45;;;;;;;3.20;2.30;;;;;;;-1.38;100.00;100233.38;105264;1254;65996;-48
2023/01/30 05:16:14;;;;;;;3.20;2.10;;;;;;;-1.38;100.00;100224.92;105222;1255;70411;-51
2023/01/30 05:18:42;;;;;;;5.70;3.40;;;;;;;-1.40;100.00;100227.02;105782;1255;60355;-50
2023/01/30 05:21:15;;;;;;;6.10;2.90;;;;;;;-1.41;100.00;100229.12;105137;1254;60517;-50
2023/01/30 05:23:42;;;;;;;3.60;2.50;;;;;;;-1.43;100.00;100231.03;105939;1254;71560;-50
2023/01/30 05:26:12;;;;;;;3.80;2.70;;;;;;;-1.44;100.00;100221.52;105154;1253;66298;-49
2023/01/30 05:28:40;;;;;;;4.60;2.80;;;;;;;-1.46;100.00;100221.52;105496;1256;72990;-50
2023/01/30 05:31:10;;;;;;;4.90;3.00;;;;;;;-1.47;100.00;100218.17;105697;1254;61108;-49
2023/01/30 05:33:39;;;;;;;4.30;2.40;;;;;;;-1.47;100.00;100219.75;105249;1254;60450;-49
2023/01/30 05:36:07;;;;;;;3.20;1.70;;;;;;;-1.45;100.00;100216.95;105259;1256;74242;-49
2023/01/30 05:38:36;;;;;;;3.70;2.30;;;;;;;-1.42;100.00;100213.80;105562;1252;66228;-51
2023/01/30 05:41:05;;;;;;;3.40;2.00;;;;;;;-1.39;100.00;100210.65;105561;1253;72551;-49
2023/01/30 05:43:34;;;;;;;3.30;2.00;;;;;;;-1.37;100.00;100208.21;105443;1256;60421;-49
2023/01/30 05:46:06;;;;;;;5.50;3.00;;;;;;;-1.36;100.00;100203.45;105159;1253;60414;-50
2023/01/30 05:48:34;;;;;;;3.10;2.10;;;;;;;-1.34;100.00;100194.13;105456;1254;73247;-49
2023/01/30 05:51:02;;;;;;;2.70;2.10;;;;;;;-1.33;100.00;100194.50;105596;1256;66480;-50
2023/01/30 05:53:34;;;;;;;5.30;2.40;;;;;;;-1.32;100.00;100194.67;105252;1254;73275;-50
2023/01/30 05:56:03;;;;;;;3.60;2.60;;;;;;;-1.32;100.00;100189.74;105512;1257;60509;-51
2023/01/30 05:58:31;;;;;;;4.30;2.60;;;;;;;-1.33;100.00;100186.75;105318;1254;60618;-50
2023/01/30 06:01:01;;;;;;;5.00;3.30;;;;;;;-1.35;100.00;100187.95;105197;1256;73280;-48
2023/01/30 06:04:27;;;;;;;3.50;2.70;;;;;;;-1.37;100.00;100216.66;101596;1294;600270;-49
2023/01/30 06:06:55;;;;;;;4.40;3.10;;;;;;;-1.37;100.00;100269.66;105321;1265;61420;-49
2023/01/30 06:09:23;;;;;;;3.60;2.30;;;;;;;-1.37;100.00;100251.70;104312;1269;59397;-50
2023/01/30 06:11:51;;;;;;;3.00;2.20;;;;;;;-1.36;100.00;100241.66;104274;1270;70532;-50
2023/01/30 06:14:20;;;;;;;5.60;2.70;;;;;;;-1.34;100.00;100238.67;104889;1269;67227;-49
2023/01/30 06:16:48;;;;;;;6.80;2.20;;;;;;;-1.32;100.00;100234.12;108333;1266;72716;-51
2023/01/30 06:19:16;;;;;;;3.10;1.90;;;;;;;-1.30;100.00;100227.45;106714;1264;107275;-50
2023/01/30 06:21:44;;;;;;;3.10;2.00;;;;;;;-1.27;100.00;100223.77;108485;1263;60152;-51
2023/01/30 06:24:13;;;;;;;4.30;2.70;;;;;;;-1.26;100.00;100223.23;108535;1263;71121;-51
2023/01/30 06:26:40;;;;;;;4.00;2.60;;;;;;;-1.25;100.00;100217.08;108576;1263;65407;-50
2023/01/30 06:29:10;;;;;;;2.80;2.00;;;;;;;-1.24;100.00;100207.94;105059;1260;71567;-50
2023/01/30 06:31:38;;;;;;;5.50;3.50;;;;;;;-1.24;100.00;100208.98;104954;1266;62908;-51
2023/01/30 06:34:06;;;;;;;4.90;3.40;;;;;;;-1.25;100.00;100202.64;104630;1260;60262;-48
2023/01/30 06:36:35;;;;;;;3.80;2.80;;;;;;;-1.25;100.00;100200.17;104674;1261;73456;-49
2023/01/30 06:39:03;;;;;;;5.30;2.80;;;;;;;-1.23;100.00;100193.86;104548;1260;64855;-48
2023/01/30 06:41:31;;;;;;;2.90;1.80;;;;;;;-1.21;100.00;100198.27;104827;1260;72225;-49
2023/01/30 06:43:59;;;;;;;6.20;2.70;;;;;;;-1.19;100.00;100190.89;105019;1259;60773;-51
2023/01/30 06:46:28;;;;;;;6.30;2.90;;;;;;;-1.16;100.00;100190.55;104784;1260;59737;-50
2023/01/30 06:48:56;;;;;;;4.00;2.00;;;;;;;-1.15;100.00;100188.98;104757;1260;72465;-51
2023/01/30 06:51:26;;;;;;;4.80;2.70;;;;;;;-1.14;100.00;100184.59;104816;1263;67699;-50
2023/01/30 06:53:54;;;;;;;4.80;1.80;;;;;;;-1.13;100.00;100174.38;105014;1260;73289;-50
2023/01/30 06:56:22;;;;;;;3.40;2.80;;;;;;;-1.13;100.00;100176.14;104645;1261;60206;-50
2023/01/30 06:58:51;;;;;;;3.10;2.60;;;;;;;-1.14;100.00;100169.27;108760;1259;60952;-51
2023/01/30 07:01:20;;;;;;;4.30;2.80;;;;;;;-1.15;100.00;100171.71;108764;1260;72521;-51
2023/01/30 07:03:48;;;;;;;3.90;2.40;;;;;;;-1.16;100.00;100176.98;104935;1260;65087;-50
2023/01/30 07:06:16;;;;;;;5.10;2.80;;;;;;;-1.17;100.00;100172.76;105714;1260;72254;-50
2023/01/30 07:08:48;;;;;;;6.50;2.80;;;;;;;-1.18;100.00;100172.75;104699;1263;60082;-48
2023/01/30 07:11:16;;;;;;;3.70;1.90;;;;;;;-1.17;100.00;100168.70;105581;1259;59960;-49
2023/01/30 07:13:44;;;;;;;3.60;2.50;;;;;;;-1.15;100.00;100164.32;104841;1266;72903;-51
2023/01/30 07:16:12;;;;;;;4.60;2.70;;;;;;;-1.12;100.00;100164.88;104956;1263;68854;-49
2023/01/30 07:18:40;;;;;;;5.20;3.10;;;;;;;-1.10;100.00;100160.64;104837;1259;74173;-50
2023/01/30 07:21:08;;;;;;;3.20;2.70;;;;;;;-1.08;100.00;100159.77;104731;1261;59761;-51
2023/01/30 07:23:36;;;;;;;4.10;2.70;;;;;;;-1.07;100.00;100153.26;104961;1257;59660;-51
2023/01/30 07:26:04;;;;;;;4.40;3.60;;;;;;;-1.07;100.00;100150.80;104860;1258;73357;-49
2023/01/30 07:28:32;;;;;;;6.20;2.60;;;;;;;-1.07;100.00;100150.09;105013;1257;67288;-51
2023/01/30 07:31:00;;;;;;;4.10;3.70;;;;;;;-1.08;100.00;100148.50;105017;1257;73852;-51
2023/01/30 07:33:29;;;;;;;5.40;3.90;;;;;;;-1.08;100.00;100151.14;104805;1259;60582;-52
2023/01/30 07:35:57;;;;;;;4.50;3.10;;;;;;;-1.09;100.00;100146.38;105097;1257;61207;-51
2023/01/30 07:38:25;;;;;;;4.80;2.60;;;;;;;-1.10;100.00;100144.96;105489;1257;75989;-49
2023/01/30 07:40:53;;;;;;;7.00;3.70;;;;;;;-1.09;100.00;100136.68;105857;1260;67335;-50
2023/01/30 07:43:21;;;;;;;7.00;3.40;;;;;;;-1.07;100.00;100133.70;105389;1256;73656;-50
2023/01/30 07:45:49;;;;;;;5.70;3.60;;;;;;;-1.05;100.00;100129.85;105464;1260;59772;-50
2023/01/30 07:48:18;;;;;;;5.70;4.10;;;;;;;-1.02;100.00;100126.34;104725;1260;59619;-50
2023/01/30 07:50:47;;;;;;;7.20;4.20;;;;;;;-0.98;100.00;100124.42;105053;1256;72627;-50
2023/01/30 07:53:16;;;;;;;5.70;3.70;;;;;;;-0.96;100.00;100120.20;105104;1257;67166;-49
2023/01/30 07:55:44;;;;;;;5.40;3.40;;;;;;;-0.95;100.00;100113.86;105697;1256;71847;-50
2023/01/30 07:58:13;;;;;;;4.80;3.50;;;;;;;-0.94;100.00;100113.69;105514;1256;59999;-50
2023/01/30 08:00:42;;;;;;;6.50;3.30;;;;;;;-0.94;100.00;100111.05;105941;1257;59625;-51
2023/01/30 08:03:13;;;;;;;4.40;2.90;;;;;;;-0.92;100.00;100106.10;105346;1257;74292;-50
2023/01/30 08:05:42;;;;;;;3.70;2.50;;;;;;;-0.91;100.00;100104.89;104765;1257;67057;-51
2023/01/30 08:08:12;;;;;;;5.10;3.00;;;;;;;-0.90;100.00;100096.26;105002;1259;71821;-49
2023/01/30 08:10:39;;;;;;;7.30;3.70;;;;;;;-0.86;100.00;100094.52;105646;1256;62624;-49
2023/01/30 08:13:08;;;;;;;5.10;3.10;;;;;;;-0.84;100.00;100089.58;105064;1259;59675;-52
2023/01/30 08:15:36;;;;;;;4.50;3.10;;;;;;;-0.82;100.00;100084.83;104832;1259;72167;-51
2023/01/30 08:18:06;;;;;;;3.80;2.80;;;;;;;-0.79;100.00;100082.38;104901;1259;66570;-50
2023/01/30 08:20:35;;;;;;;3.00;2.60;;;;;;;-0.75;100.00;100080.25;106928;1258;72700;-50
2023/01/30 08:23:03;;;;;;;3.20;2.60;;;;;;;-0.71;100.00;100078.16;104876;1260;59662;-51
2023/01/30 08:25:32;;;;;;;5.70;3.20;;;;;;;-0.69;100.00;100077.99;105137;1257;61502;-50
2023/01/30 08:28:00;;;;;;;4.00;2.60;;;;;;;-0.65;100.00;100075.52;105227;1257;71047;-51
2023/01/30 08:30:29;;;;;;;5.60;3.30;;;;;;;-0.63;100.00;100072.54;105080;1259;65341;-51
2023/01/30 08:32:57;;;;;;;7.40;2.70;;;;;;;-0.61;100.00;100070.96;105084;1257;74291;-50
2023/01/30 08:35:26;;;;;;;8.90;3.80;;;;;;;-0.57;100.00;100070.08;104915;1260;61836;-49
2023/01/30 08:37:54;;;;;;;9.60;4.20;;;;;;;-0.54;100.00;100069.56;105079;1257;59713;-50
2023/01/30 08:40:22;;;;;;;6.50;2.40;;;;;;;-0.50;100.00;100066.20;105639;1256;73195;-50
2023/01/30 08:42:51;;;;;;;13.30;4.00;;;;;;;-0.46;100.00;100067.81;105103;1256;66810;-50
2023/01/30 08:45:18;;;;;;;5.40;2.80;;;;;;;-0.43;100.00;100063.42;104737;1257;71452;-51
2023/01/30 08:47:46;;;;;;;5.30;2.80;;;;;;;-0.43;100.00;100055.12;104752;1257;60323;-52
2023/01/30 08:50:15;;;;;;;3.00;1.70;;;;;;;-0.42;100.00;100055.46;104818;1257;61448;-50
2023/01/30 08:52:43;;;;;;;6.40;3.00;;;;;;;-0.44;100.00;100052.48;104739;1256;72781;-50
2023/01/30 08:55:11;;;;;;;7.00;3.60;;;;;;;-0.47;100.00;100049.47;104784;1257;65439;-51
2023/01/30 08:57:39;;;;;;;5.10;3.50;;;;;;;-0.49;100.00;100047.34;104817;1257;71068;-50
2023/01/30 09:00:08;;;;;;;3.70;2.30;;;;;;;-0.53;100.00;100044.89;104971;1256;60155;-49
2023/01/30 09:02:36;;;;;;;5.00;2.60;;;;;;;-0.55;100.00;100045.93;105676;1257;60562;-51
2023/01/30 09:05:07;;;;;;;3.50;2.40;;;;;;;-0.56;100.00;100041.88;104790;1259;75110;-50
2023/01/30 09:07:36;;;;;;;5.40;2.60;;;;;;;-0.55;100.00;100038.35;104993;1257;68025;-49
2023/01/30 09:10:05;;;;;;;3.00;2.30;;;;;;;-0.54;100.00;100032.02;106444;1256;71794;-50
2023/01/30 09:12:33;;;;;;;2.80;2.30;;;;;;;-0.54;100.00;100033.25;105129;1257;61072;-51
2023/01/30 09:15:05;;;;;;;5.60;2.20;;;;;;;-0.55;100.00;100031.66;104926;1256;60947;-49
2023/01/30 09:17:34;;;;;;;13.80;7.30;;;;;;;-0.55;100.00;100031.13;104810;1257;71239;-50
2023/01/30 09:20:02;;;;;;;8.60;4.70;;;;;;;-0.56;100.00;100016.13;104615;1260;66521;-51
2023/01/30 09:22:31;;;;;;;5.40;2.90;;;;;;;-0.60;100.00;100016.84;105095;1257;74185;-50
2023/01/30 09:24:59;;;;;;;6.50;4.60;;;;;;;-0.64;100.00;100007.33;104469;1262;62186;-51
2023/01/30 09:27:28;;;;;;;7.10;4.00;;;;;;;-0.68;100.00;100001.51;106077;1257;59670;-49
2023/01/30 09:29:56;;;;;;;8.30;4.80;;;;;;;-0.71;100.00;99998.69;104765;1257;72352;-52
2023/01/30 09:32:26;;;;;;;4.40;2.80;;;;;;;-0.75;100.00;99991.80;104824;1257;68471;-51
2023/01/30 09:34:54;;;;;;;3.80;2.30;;;;;;;-0.77;100.00;99988.64;105561;1257;73574;-51
2023/01/30 09:37:22;;;;;;;4.30;2.10;;;;;;;-0.78;100.00;99985.30;104987;1259;60623;-51
2023/01/30 09:39:50;;;;;;;8.40;2.70;;;;;;;-0.79;100.00;99979.83;104736;1257;61847;-51
2023/01/30 09:42:24;;;;;;;4.40;2.90;;;;;;;-0.81;100.00;99972.24;105823;1256;73970;-51
2023/01/30 09:45:15;;;;;;;2.60;2.30;;;;;;;-0.82;100.00;99970.11;108059;1257;66854;-51
2023/01/30 09:48:02;;;;;;;4.30;2.80;;;;;;;-0.84;100.00;99971.70;104550;1257;72939;-51
2023/01/30 09:50:52;;;;;;;3.90;2.70;;;;;;;-0.87;100.00;99961.85;104771;1257;61050;-52
2023/01/30 09:53:30;;;;;;;4.90;3.30;;;;;;;-0.88;100.00;99952.68;104737;1256;59756;-50
2023/01/30 09:55:59;;;;;;;4.80;3.20;;;;;;;-0.88;100.00;99938.23;104678;1257;72132;-51
2023/01/30 09:58:36;;;;;;;5.10;3.40;;;;;;;-0.86;100.00;99931.55;104771;1263;66979;-50
2023/01/30 10:01:05;;;;;;;6.20;2.30;;;;;;;-0.83;100.00;99929.06;105341;1257;72805;-52
2023/01/30 10:03:37;;;;;;;2.30;2.10;;;;;;;-0.81;100.00;99923.44;104609;1262;62091;-51
2023/01/30 10:06:09;;;;;;;6.90;2.90;;;;;;;-0.76;100.00;99922.55;105563;1257;60543;-50
2023/01/30 10:08:57;;;;;;;5.30;2.80;;;;;;;-0.72;100.00;99912.86;104903;1257;72155;-50
2023/01/30 10:12:00;;;;;;;4.70;2.40;;;;;;;-0.68;100.00;99918.86;104806;1259;67306;-52
2023/01/30 10:14:35;;;;;;;4.70;3.00;;;;;;;-0.66;100.00;99920.77;105393;1256;73157;-49
2023/01/30 10:17:23;;;;;;;5.00;3.40;;;;;;;-0.63;100.00;99901.23;105424;1257;60341;-49
2023/01/30 10:20:19;;;;;;;4.00;3.10;;;;;;;-0.61;100.00;99902.98;105535;1257;61198;-51
2023/01/30 10:23:21;;;;;;;9.10;3.90;;;;;;;-0.60;100.00;99900.88;107251;1256;74107;-50
2023/01/30 10:25:51;;;;;;;8.90;5.00;;;;;;;-0.59;100.00;99896.45;104638;1256;67545;-51
2023/01/30 10:28:32;;;;;;;5.40;2.60;;;;;;;-0.57;100.00;99875.83;104986;1257;73728;-52
2023/01/30 10:31:12;;;;;;;3.10;2.40;;;;;;;-0.54;100.00;99873.73;105244;1256;60555;-51
2023/01/30 10:35:18;;;;;;;2.60;2.30;;;;;;;-0.46;100.00;99887.98;102449;1293;601465;-53
2023/01/30 10:38:03;;;;;;;2.80;2.40;;;;;;;-0.40;100.00;99947.91;104824;1266;59487;-51
2023/01/30 10:40:38;;;;;;;4.70;1.90;;;;;;;-0.35;100.00;99932.05;104168;1267;61055;-52
2023/01/30 10:43:19;;;;;;;3.20;1.80;;;;;;;-0.33;100.00;99908.04;108371;1266;73039;-51
2023/01/30 10:46:29;;;;;;;4.20;2.00;;;;;;;-0.31;100.00;99903.80;108271;1265;65240;-51
2023/01/30 10:48:58;;;;;;;5.50;2.60;;;;;;;-0.30;100.00;99905.58;108282;1263;137721;-52
2023/01/30 10:51:38;;;;;;;2.50;1.80;;;;;;;-0.30;100.00;99882.65;108283;1264;59908;-52
2023/01/30 10:54:16;;;;;;;2.50;2.00;;;;;;;-0.27;100.00;99885.30;104705;1267;59407;-50
2023/01/30 10:56:53;;;;;;;4.10;2.60;;;;;;;-0.24;100.00;99874.51;104640;1264;72418;-48
2023/01/30 10:59:28;;;;;;;3.10;2.50;;;;;;;-0.20;100.00;99864.98;104370;1269;68381;-50
2023/01/30 11:02:20;;;;;;;5.20;2.80;;;;;;;-0.15;100.00;99858.61;104331;1264;71598;-50
2023/01/30 11:04:56;;;;;;;5.20;3.10;;;;;;;-0.12;100.00;99858.44;104437;1263;59743;-50
2023/01/30 11:07:26;;;;;;;3.80;2.10;;;;;;;-0.09;100.00;99846.09;104473;1264;60499;-49
2023/01/30 11:09:54;;;;;;;4.40;2.40;;;;;;;-0.08;100.00;99841.84;104458;1263;72365;-51
2023/01/30 11:12:22;;;;;;;4.70;2.70;;;;;;;-0.08;100.00;99834.59;104626;1269;67385;-51
2023/01/30 11:14:55;;;;;;;5.50;2.80;;;;;;;-0.09;100.00;99825.80;104248;1267;71965;-51
2023/01/30 11:17:40;;;;;;;5.00;3.80;;;;;;;-0.11;100.00;99816.64;104940;1259;61384;-52
2023/01/30 11:20:16;;;;;;;5.40;2.50;;;;;;;-0.16;100.00;99819.45;105780;1257;59730;-51
2023/01/30 11:23:25;;;;;;;6.50;3.00;;;;;;;-0.18;100.00;99813.85;105148;1259;71939;-51
2023/01/30 11:25:54;;;;;;;5.40;3.40;;;;;;;-0.19;100.00;99821.77;105161;1256;68065;-51
2023/01/30 11:28:41;;;;;;;5.90;3.10;;;;;;;-0.18;100.00;99806.08;104808;1256;71573;-51
2023/01/30 11:31:28;;;;;;;7.10;3.20;;;;;;;-0.15;100.00;99794.05;104810;1259;60473;-51
2023/01/30 11:34:12;;;;;;;5.00;3.30;;;;;;;-0.13;100.00;99798.81;105204;1257;59586;-52
2023/01/30 11:36:40;;;;;;;5.00;3.40;;;;;;;-0.10;100.00;99784.52;105068;1257;73876;-52
2023/01/30 11:39:12;;;;;;;5.10;3.50;;;;;;;-0.07;100.00;99768.61;105285;1257;68097;-53
2023/01/30 11:41:41;;;;;;;5.50;3.10;;;;;;;-0.04;100.00;99766.49;105040;1257;72947;-52
2023/01/30 11:44:09;;;;;;;4.60;3.10;;;;;;;-0.02;100.00;99756.44;104968;1256;60452;-54